Wetterstation Vordersexau
Wetterdaten: Woche 25.08.14 - 31.08.14 (KW35)
Datum Zeit Temp. A. Feuchte A. Luftdruck Regen Wind Richtung Taupunkt Windchill Windben
25.08.2014 00:00 9,3 C 82 % 990,6 hPa 0,0 l/m 0,0 km/h O 6,4 C 9,3 C 0,0 km/h
25.08.2014 01:00 8,4 C 83 % 990,4 hPa 0,0 l/m 0,0 km/h O-SO 5,7 C 8,4 C 0,0 km/h
25.08.2014 02:00 8,3 C 83 % 989,8 hPa 0,0 l/m 0,0 km/h SO 5,6 C 8,3 C 0,0 km/h
25.08.2014 03:00 9,0 C 84 % 989,4 hPa 0,0 l/m 0,0 km/h SO 6,4 C 9,0 C 0,0 km/h
25.08.2014 04:00 9,0 C 84 % 989,3 hPa 0,0 l/m 0,0 km/h O 6,4 C 9,0 C 0,0 km/h
25.08.2014 05:00 9,1 C 84 % 988,9 hPa 0,0 l/m 0,0 km/h O-SO 6,5 C 9,1 C 0,0 km/h
25.08.2014 06:00 9,0 C 84 % 988,9 hPa 0,0 l/m 1,3 km/h SO 6,4 C 9,0 C 0,7 km/h
25.08.2014 07:00 8,9 C 84 % 988,8 hPa 0,0 l/m 0,0 km/h SO 6,3 C 8,9 C 0,0 km/h
25.08.2014 08:00 11,2 C 84 % 989,0 hPa 0,0 l/m 0,0 km/h SO 8,6 C 11,2 C 0,0 km/h
25.08.2014 09:00 14,6 C 78 % 989,0 hPa 0,0 l/m 0,0 km/h NO 10,8 C 14,6 C 0,0 km/h
25.08.2014 10:00 16,6 C 73 % 989,2 hPa 0,0 l/m 0,0 km/h O-SO 11,7 C 16,6 C 0,0 km/h
25.08.2014 11:00 19,9 C 61 % 988,8 hPa 0,0 l/m 0,0 km/h W 12,2 C 19,9 C 0,0 km/h
25.08.2014 12:00 23,7 C 46 % 988,2 hPa 0,0 l/m 0,0 km/h W-NW 11,4 C 23,7 C 0,0 km/h
25.08.2014 13:00 21,7 C 50 % 987,6 hPa 0,0 l/m 9,7 km/h S 10,8 C 20,6 C 5,4 km/h
25.08.2014 14:00 22,1 C 52 % 986,6 hPa 0,0 l/m 0,0 km/h W 11,8 C 22,1 C 0,0 km/h
25.08.2014 15:00 20,2 C 51 % 986,5 hPa 0,0 l/m 9,1 km/h W 9,7 C 19,2 C 5,0 km/h
25.08.2014 16:00 20,1 C 55 % 985,6 hPa 0,0 l/m 1,3 km/h W-NW 10,8 C 20,1 C 0,7 km/h
25.08.2014 17:00 19,4 C 56 % 985,4 hPa 0,0 l/m 9,7 km/h SW 10,4 C 18,1 C 5,4 km/h
25.08.2014 18:00 18,4 C 60 % 984,9 hPa 0,0 l/m 0,0 km/h S 10,5 C 18,4 C 0,0 km/h
25.08.2014 19:00 17,1 C 69 % 984,6 hPa 0,0 l/m 0,0 km/h W 11,4 C 17,1 C 0,0 km/h
25.08.2014 20:00 16,2 C 69 % 984,7 hPa 0,0 l/m 3,2 km/h SO 10,5 C 16,2 C 1,8 km/h
25.08.2014 21:00 14,3 C 79 % 984,0 hPa 0,0 l/m 0,0 km/h O 10,7 C 14,3 C 0,0 km/h
25.08.2014 22:00 13,4 C 82 % 982,7 hPa 0,0 l/m 0,0 km/h N-NO 10,4 C 13,4 C 0,0 km/h
25.08.2014 23:00 12,9 C 83 % 982,4 hPa 0,0 l/m 0,0 km/h O-SO 10,1 C 12,9 C 0,0 km/h
26.08.2014 00:00 12,8 C 84 % 980,8 hPa 0,2 l/m 0,0 km/h O-SO 10,2 C 12,8 C 0,0 km/h
26.08.2014 01:00 12,8 C 84 % 980,5 hPa 0,0 l/m 0,0 km/h SO 10,2 C 12,8 C 0,0 km/h
26.08.2014 02:00 12,9 C 84 % 979,8 hPa 0,4 l/m 0,0 km/h SO 10,3 C 12,9 C 0,0 km/h
26.08.2014 03:00 13,4 C 84 % 978,4 hPa 0,8 l/m 1,8 km/h SW 10,8 C 13,4 C 1,8 km/h
26.08.2014 04:00 13,8 C 84 % 977,7 hPa 0,4 l/m 4,0 km/h W-SW 11,1 C 13,8 C 4,0 km/h
26.08.2014 05:00 16,8 C 80 % 977,8 hPa 0,0 l/m 24,6 km/h W-SW 13,3 C 11,1 C 13,7 km/h
26.08.2014 06:00 16,2 C 82 % 978,5 hPa 0,0 l/m 25,3 km/h SW 13,1 C 10,2 C 14,0 km/h
26.08.2014 07:00 16,1 C 82 % 978,5 hPa 0,0 l/m 20,7 km/h W-SW 13,0 C 11,0 C 11,5 km/h
26.08.2014 08:00 15,6 C 84 % 979,1 hPa 0,0 l/m 33,7 km/h S-SW 12,9 C 8,0 C 18,7 km/h
26.08.2014 09:00 16,9 C 83 % 979,2 hPa 0,0 l/m 12,3 km/h W 14,0 C 14,4 C 6,8 km/h
26.08.2014 10:00 17,2 C 82 % 979,4 hPa 0,0 l/m 9,7 km/h W-NW 14,1 C 15,7 C 5,4 km/h
26.08.2014 11:00 18,5 C 79 % 979,3 hPa 0,0 l/m 17,5 km/h W-SW 14,8 C 14,8 C 9,7 km/h
26.08.2014 12:00 20,5 C 78 % 979,1 hPa 0,0 l/m 25,3 km/h S-SW 16,5 C 16,0 C 14,0 km/h
26.08.2014 13:00 21,3 C 74 % 978,8 hPa 0,0 l/m 11,7 km/h W-SW 16,5 C 19,6 C 6,5 km/h
26.08.2014 14:00 23,2 C 71 % 978,5 hPa 0,0 l/m 4,5 km/h W 17,6 C 23,2 C 2,5 km/h
26.08.2014 15:00 25,9 C 61 % 977,7 hPa 0,0 l/m 34,3 km/h SW 17,8 C 22,8 C 19,1 km/h
26.08.2014 16:00 26,9 C 56 % 977,7 hPa 0,0 l/m 19,4 km/h SW 17,4 C 25,2 C 10,8 km/h
26.08.2014 17:00 22,2 C 66 % 977,3 hPa 0,0 l/m 21,4 km/h W 15,5 C 18,8 C 11,9 km/h
26.08.2014 18:00 17,3 C 83 % 978,4 hPa 0,4 l/m 21,4 km/h SW 14,4 C 12,4 C 11,9 km/h
26.08.2014 19:00 17,8 C 84 % 978,5 hPa 0,4 l/m 20,1 km/h W-SW 15,1 C 13,3 C 11,2 km/h
26.08.2014 20:00 17,9 C 81 % 979,2 hPa 0,2 l/m 13,6 km/h W 14,6 C 15,1 C 7,6 km/h
26.08.2014 21:00 17,6 C 80 % 980,0 hPa 0,0 l/m 7,9 km/h W-SW 14,1 C 16,9 C 7,9 km/h
26.08.2014 22:00 16,6 C 83 % 980,8 hPa 0,0 l/m 1,8 km/h S-SW 13,7 C 16,6 C 1,8 km/h
26.08.2014 23:00 16,2 C 84 % 981,2 hPa 0,0 l/m 0,0 km/h W 13,5 C 16,2 C 0,0 km/h
27.08.2014 00:00 15,9 C 84 % 981,4 hPa 0,2 l/m 0,0 km/h N-NO 13,2 C 15,9 C 0,0 km/h
27.08.2014 01:00 15,6 C 84 % 981,7 hPa 0,4 l/m 0,0 km/h N 12,9 C 15,6 C 0,0 km/h
27.08.2014 02:00 15,3 C 84 % 981,8 hPa 0,0 l/m 0,0 km/h SW 12,6 C 15,3 C 0,0 km/h
27.08.2014 03:00 15,2 C 84 % 982,0 hPa 0,0 l/m 1,4 km/h W-NW 12,5 C 15,2 C 1,4 km/h
27.08.2014 04:00 15,5 C 84 % 982,7 hPa 0,0 l/m 2,9 km/h NW 12,8 C 15,5 C 2,9 km/h
27.08.2014 05:00 15,0 C 82 % 983,0 hPa 0,8 l/m 0,0 km/h NW 12,0 C 15,0 C 0,0 km/h
27.08.2014 06:00 14,9 C 82 % 983,4 hPa 0,0 l/m 0,0 km/h W-SW 11,9 C 14,9 C 0,0 km/h
27.08.2014 07:00 15,0 C 82 % 983,8 hPa 0,0 l/m 0,0 km/h S 12,0 C 15,0 C 0,0 km/h
27.08.2014 08:00 15,3 C 80 % 984,8 hPa 0,2 l/m 0,0 km/h W-NW 11,9 C 15,3 C 0,0 km/h
27.08.2014 09:00 15,9 C 79 % 985,4 hPa 0,2 l/m 2,6 km/h W 12,3 C 15,9 C 1,4 km/h
27.08.2014 10:00 16,9 C 82 % 986,0 hPa 0,0 l/m 1,9 km/h W-NW 13,8 C 16,9 C 1,1 km/h
27.08.2014 11:00 19,2 C 84 % 986,4 hPa 0,2 l/m 1,9 km/h W-SW 16,4 C 19,2 C 1,1 km/h
27.08.2014 12:00 21,3 C 74 % 986,4 hPa 0,0 l/m 13,0 km/h O-NO 16,5 C 19,3 C 7,2 km/h
27.08.2014 13:00 18,5 C 78 % 987,1 hPa 0,0 l/m 0,0 km/h O-SO 14,6 C 18,5 C 0,0 km/h
27.08.2014 14:00 23,2 C 67 % 987,0 hPa 0,0 l/m 0,0 km/h O 16,7 C 23,2 C 0,0 km/h
27.08.2014 15:00 26,5 C 59 % 987,3 hPa 0,0 l/m 0,0 km/h N-NO 17,8 C 26,5 C 0,0 km/h
27.08.2014 16:00 23,9 C 60 % 987,1 hPa 0,0 l/m 0,0 km/h N-NO 15,7 C 23,9 C 0,0 km/h
27.08.2014 17:00 26,8 C 52 % 987,4 hPa 0,0 l/m 0,0 km/h N 16,1 C 26,8 C 0,0 km/h
27.08.2014 18:00 22,1 C 61 % 987,3 hPa 0,0 l/m 0,0 km/h N 14,2 C 22,1 C 0,0 km/h
27.08.2014 19:00 23,1 C 63 % 987,3 hPa 0,0 l/m 0,0 km/h N-NO 15,7 C 23,1 C 0,0 km/h
27.08.2014 20:00 17,6 C 75 % 987,5 hPa 0,0 l/m 0,0 km/h N 13,1 C 17,6 C 0,0 km/h
27.08.2014 21:00 15,1 C 82 % 987,7 hPa 0,0 l/m 0,0 km/h N-NO 12,0 C 15,1 C 0,0 km/h
27.08.2014 22:00 14,3 C 84 % 988,0 hPa 0,0 l/m 0,0 km/h NO 11,6 C 14,3 C 0,0 km/h
27.08.2014 23:00 14,2 C 85 % 988,4 hPa 0,0 l/m 0,0 km/h NO 11,7 C 14,2 C 0,0 km/h
28.08.2014 00:00 14,6 C 85 % 988,5 hPa 0,0 l/m 0,0 km/h NO 12,1 C 14,6 C 0,0 km/h
28.08.2014 01:00 14,6 C 85 % 988,6 hPa 0,0 l/m 0,0 km/h O-SO 12,1 C 14,6 C 0,0 km/h
28.08.2014 02:00 14,1 C 85 % 988,3 hPa 0,0 l/m 0,0 km/h O-SO 11,6 C 14,1 C 0,0 km/h
28.08.2014 03:00 12,8 C 85 % 988,1 hPa 0,0 l/m 0,0 km/h O-SO 10,3 C 12,8 C 0,0 km/h
28.08.2014 04:00 11,9 C 85 % 988,1 hPa 0,0 l/m 0,0 km/h O-SO 9,5 C 11,9 C 0,0 km/h
28.08.2014 05:00 11,8 C 85 % 988,2 hPa 0,0 l/m 0,0 km/h O-SO 9,4 C 11,8 C 0,0 km/h
28.08.2014 06:00 11,9 C 84 % 988,4 hPa 0,0 l/m 0,0 km/h SO 9,3 C 11,9 C 0,0 km/h
28.08.2014 07:00 12,4 C 83 % 988,5 hPa 0,0 l/m 1,3 km/h SO 9,6 C 12,4 C 0,7 km/h
28.08.2014 08:00 13,2 C 80 % 988,7 hPa 0,0 l/m 0,6 km/h SO 9,8 C 13,2 C 0,4 km/h
28.08.2014 09:00 21,1 C 78 % 988,5 hPa 0,0 l/m 8,4 km/h W-NW 17,1 C 20,4 C 4,7 km/h
28.08.2014 10:00 26,2 C 61 % 988,8 hPa 0,0 l/m 0,0 km/h W 18,1 C 26,2 C 0,0 km/h
28.08.2014 11:00 27,8 C 56 % 988,6 hPa 0,0 l/m 0,0 km/h W 18,2 C 27,8 C 0,0 km/h
28.08.2014 12:00 28,6 C 52 % 988,4 hPa 0,0 l/m 6,5 km/h W-SW 17,8 C 28,6 C 3,6 km/h
28.08.2014 13:00 27,9 C 50 % 988,0 hPa 0,0 l/m 2,6 km/h W 16,5 C 27,9 C 1,4 km/h
28.08.2014 14:00 27,0 C 51 % 988,0 hPa 0,0 l/m 8,4 km/h W 16,0 C 26,6 C 4,7 km/h
28.08.2014 15:00 29,2 C 45 % 987,5 hPa 0,0 l/m 16,8 km/h S 16,0 C 28,3 C 9,4 km/h
28.08.2014 16:00 29,4 C 44 % 987,0 hPa 0,0 l/m 3,9 km/h SW 15,8 C 29,4 C 2,2 km/h
28.08.2014 17:00 31,6 C 40 % 986,9 hPa 0,0 l/m 3,9 km/h W-SW 16,3 C 31,6 C 2,2 km/h
28.08.2014 18:00 34,3 C 35 % 986,7 hPa 0,0 l/m 5,2 km/h SW 16,6 C 34,3 C 2,9 km/h
28.08.2014 19:00 28,7 C 45 % 986,6 hPa 0,0 l/m 4,5 km/h S 15,6 C 28,7 C 2,5 km/h
28.08.2014 20:00 21,0 C 64 % 986,8 hPa 0,0 l/m 0,0 km/h NO 13,9 C 21,0 C 0,0 km/h
28.08.2014 21:00 17,8 C 76 % 987,6 hPa 0,0 l/m 0,0 km/h SO 13,5 C 17,8 C 0,0 km/h
28.08.2014 22:00 17,0 C 79 % 987,8 hPa 0,0 l/m 0,0 km/h SO 13,3 C 17,0 C 0,0 km/h
28.08.2014 23:00 16,2 C 82 % 987,9 hPa 0,0 l/m 0,0 km/h NO 13,1 C 16,2 C 0,0 km/h
29.08.2014 00:00 16,1 C 82 % 987,8 hPa 0,0 l/m 0,0 km/h NO 13,0 C 16,1 C 0,0 km/h
29.08.2014 01:00 16,3 C 83 % 987,9 hPa 0,0 l/m 0,0 km/h SO 13,4 C 16,3 C 0,0 km/h
29.08.2014 02:00 16,1 C 84 % 987,8 hPa 0,0 l/m 0,0 km/h O-NO 13,4 C 16,1 C 0,0 km/h
29.08.2014 03:00 15,8 C 84 % 987,7 hPa 0,0 l/m 0,0 km/h O-SO 13,1 C 15,8 C 0,0 km/h
29.08.2014 04:00 16,1 C 84 % 987,6 hPa 0,0 l/m 0,0 km/h O-SO 13,4 C 16,1 C 0,0 km/h
29.08.2014 05:00 16,1 C 85 % 987,7 hPa 0,0 l/m 0,0 km/h O-SO 13,6 C 16,1 C 0,0 km/h
29.08.2014 06:00 16,1 C 84 % 987,8 hPa 0,0 l/m 0,0 km/h W-SW 13,4 C 16,1 C 0,0 km/h
29.08.2014 07:00 16,2 C 85 % 988,3 hPa 0,0 l/m 0,0 km/h SO 13,7 C 16,2 C 0,0 km/h
29.08.2014 08:00 16,2 C 84 % 988,5 hPa 0,6 l/m 2,6 km/h S-SW 13,5 C 16,2 C 1,4 km/h
29.08.2014 09:00 17,4 C 84 % 988,5 hPa 0,2 l/m 0,0 km/h SO 14,7 C 17,4 C 0,0 km/h
29.08.2014 10:00 19,9 C 85 % 988,6 hPa 0,0 l/m 0,0 km/h W 17,3 C 19,9 C 0,0 km/h
29.08.2014 11:00 23,2 C 73 % 988,6 hPa 0,0 l/m 0,0 km/h W-SW 18,1 C 23,2 C 0,0 km/h
29.08.2014 12:00 21,8 C 78 % 988,7 hPa 0,0 l/m 7,1 km/h S-SO 17,8 C 21,6 C 4,0 km/h
29.08.2014 13:00 25,1 C 71 % 988,4 hPa 0,0 l/m 0,0 km/h S 19,5 C 25,1 C 0,0 km/h
29.08.2014 14:00 25,3 C 66 % 988,2 hPa 0,0 l/m 0,0 km/h W-NW 18,5 C 25,3 C 0,0 km/h
29.08.2014 15:00 26,8 C 68 % 987,9 hPa 0,2 l/m 0,0 km/h SW 20,4 C 26,8 C 0,0 km/h
29.08.2014 16:00 23,4 C 71 % 987,7 hPa 0,0 l/m 0,0 km/h S-SW 17,8 C 23,4 C 0,0 km/h
29.08.2014 17:00 21,8 C 75 % 987,5 hPa 0,0 l/m 0,0 km/h S-SO 17,2 C 21,8 C 0,0 km/h
29.08.2014 18:00 20,9 C 79 % 987,5 hPa 0,0 l/m 0,0 km/h S-SW 17,1 C 20,9 C 0,0 km/h
29.08.2014 19:00 19,8 C 81 % 987,7 hPa 0,0 l/m 5,8 km/h S-SW 16,4 C 19,8 C 3,2 km/h
29.08.2014 20:00 19,1 C 82 % 987,8 hPa 0,0 l/m 6,5 km/h S 16,0 C 19,1 C 3,6 km/h
29.08.2014 21:00 17,8 C 84 % 988,6 hPa 0,0 l/m 0,0 km/h NO 15,1 C 17,8 C 0,0 km/h
29.08.2014 22:00 17,4 C 84 % 989,1 hPa 0,0 l/m 0,0 km/h NO 14,7 C 17,4 C 0,0 km/h
29.08.2014 23:00 17,1 C 84 % 989,6 hPa 0,0 l/m 0,0 km/h N-NO 14,4 C 17,1 C 0,0 km/h
30.08.2014 00:00 16,9 C 84 % 989,8 hPa 0,0 l/m 0,0 km/h N-NO 14,2 C 16,9 C 0,0 km/h
30.08.2014 01:00 16,9 C 84 % 990,1 hPa 0,0 l/m 0,0 km/h O-NO 14,2 C 16,9 C 0,0 km/h
30.08.2014 02:00 16,5 C 84 % 990,3 hPa 0,0 l/m 0,0 km/h O-NO 13,8 C 16,5 C 0,0 km/h
30.08.2014 03:00 16,1 C 83 % 990,2 hPa 0,0 l/m 0,0 km/h O-NO 13,2 C 16,1 C 0,0 km/h
30.08.2014 04:00 15,9 C 83 % 990,3 hPa 0,0 l/m 0,0 km/h O-NO 13,0 C 15,9 C 0,0 km/h
30.08.2014 05:00 15,6 C 83 % 989,8 hPa 0,0 l/m 0,0 km/h O-NO 12,7 C 15,6 C 0,0 km/h
30.08.2014 06:00 14,3 C 83 % 989,9 hPa 0,0 l/m 0,0 km/h O 11,5 C 14,3 C 0,0 km/h
30.08.2014 07:00 14,0 C 82 % 990,1 hPa 0,0 l/m 0,0 km/h SO 11,0 C 14,0 C 0,0 km/h
30.08.2014 08:00 15,5 C 80 % 990,6 hPa 0,0 l/m 0,0 km/h O-SO 12,1 C 15,5 C 0,0 km/h
30.08.2014 09:00 17,4 C 79 % 990,8 hPa 0,0 l/m 0,0 km/h W-NW 13,7 C 17,4 C 0,0 km/h
30.08.2014 10:00 21,3 C 77 % 990,8 hPa 0,0 l/m 0,0 km/h N 17,1 C 21,3 C 0,0 km/h
Min-Datum _ 25.08.14 28.08.14 26.08.14 - 25.08.14 - 25.08.14 26.08.14 25.08.14
_ Min-Zeit 02:19 18:19 17:19 - 00:19 - 02:19 08:19 00:19
Minimum _ 8,3 C 35 % 977,3 hPa - 0,0 km/h - 5,6 C 8,0 C 0,0 km/h
Max-Datum _ 28.08.14 27.08.14 30.08.14 26.08.14 26.08.14 - 29.08.14 28.08.14 26.08.14
_ Max-Zeit 18:19 23:19 09:19 03:19 15:19 - 15:19 18:19 15:19
Maximum _ 34,3 C 85 % 990,8 hPa 0,8 l/m 34,3 km/h
SW
- 20,4 C 34,3 C 19,1 km/h
SW
Durchschnitt _ 18,0 C 75 % 986,0 hPa #6,0 l/m 3,6 km/h SO 13,3 C 17,5 C 2,1 km/h
www.sexauwetter.de